Hestrud (Nord, France) - 208 m
Donnes mto: Actuelle mercredi, 21/08/2019 17:29
Date Horaire Temp Out Temp. 4 Temp. E. min Temp. E. max Temp. Sol 1 Hum Out Hum. Sol 1 Press Rain Wind Dir Dir Solar Ev.Tr. UV Hi Solar Rad Dew Point Windchill Wind (Gust)
21/08/2019 17:29 22,3 C 31,7 C 22,3 C 22,3 C 20,0 C 47 % 200 cb 1025,9 hPa 0,0 mm 3,2 km/h (1 Bft) NO 315 60 min 0,356 mm 1,5 UV-I 334 W/m 10,4 C 22,3 C 6,4 km/h (2 Bft)
21/08/2019 16:29 23,2 C 32,2 C 23,2 C 23,2 C 20,6 C 42 % 200 cb 1026,2 hPa 0,0 mm 6,4 km/h (2 Bft) N-NE 22 60 min 0,406 mm 2,9 UV-I 554 W/m 9,6 C 23,2 C 11,3 km/h (2 Bft)
21/08/2019 15:29 22,5 C 27,8 C 22,5 C 22,5 C 21,7 C 43 % 200 cb 1026,5 hPa 0,0 mm 3,2 km/h (1 Bft) SE 135 60 min 0,432 mm 3,6 UV-I 569 W/m 9,3 C 22,5 C 6,4 km/h (2 Bft)
21/08/2019 14:29 21,8 C 27,2 C 21,7 C 21,8 C 21,7 C 51 % 200 cb 1026,9 hPa 0,0 mm 4,8 km/h (1 Bft) N 360 60 min 0,432 mm 4,7 UV-I 708 W/m 11,2 C 21,8 C 8,0 km/h (2 Bft)
21/08/2019 13:29 20,5 C 25,0 C 20,5 C 20,5 C 20,6 C 55 % 200 cb 1027,5 hPa 0,0 mm 4,8 km/h (1 Bft) E 90 60 min 0,406 mm 4,8 UV-I 715 W/m 11,1 C 20,5 C 8,0 km/h (2 Bft)
21/08/2019 12:29 19,6 C 24,4 C 19,6 C 19,6 C 20,0 C 61 % 200 cb 1028,0 hPa 0,0 mm 3,2 km/h (1 Bft) N-NO 337 60 min 0,330 mm 4,2 UV-I 638 W/m 11,9 C 19,6 C 4,8 km/h (1 Bft)
21/08/2019 11:29 18,2 C 21,7 C 18,1 C 18,2 C 17,8 C 67 % 200 cb 1028,2 hPa 0,0 mm 1,6 km/h (1 Bft) NE 45 60 min 0,254 mm 3,3 UV-I 595 W/m 12,0 C 18,2 C 3,2 km/h (1 Bft)
21/08/2019 10:29 16,1 C 20,0 C 16,0 C 16,1 C 16,1 C 86 % 200 cb 1028,3 hPa 0,0 mm 3,2 km/h (1 Bft) O-NO 292 60 min 0,178 mm 2,3 UV-I 476 W/m 13,8 C 16,1 C 6,4 km/h (2 Bft)
21/08/2019 09:29 12,3 C 15,6 C 12,2 C 12,3 C 11,7 C 99 % 200 cb 1028,4 hPa 0,0 mm 1,6 km/h (1 Bft) N 360 39 min 0,051 mm 1,2 UV-I 369 W/m 12,1 C 12,3 C 3,2 km/h (1 Bft)
21/08/2019 08:29 7,9 C 13,3 C 7,8 C 7,9 C 8,9 C 97 % 200 cb 1028,3 hPa 0,0 mm 0,0 km/h (0 Bft) N 0 0 min 0,025 mm 0,3 UV-I 56 W/m 7,5 C 7,9 C 0,0 km/h (0 Bft)
21/08/2019 07:29 5,9 C 12,8 C 5,9 C 5,9 C 7,8 C 95 % 200 cb 1027,8 hPa 0,0 mm 0,0 km/h (0 Bft) N 0 0 min 0,000 mm 0,0 UV-I 32 W/m 5,2 C 5,9 C 0,0 km/h (0 Bft)
21/08/2019 06:29 6,1 C 7,2 C 6,1 C 6,1 C 7,2 C 94 % 200 cb 1027,4 hPa 0,0 mm 0,0 km/h (0 Bft) N 0 0 min 0,000 mm 0,0 UV-I 0 W/m 5,2 C 6,1 C 0,0 km/h (0 Bft)
21/08/2019 05:29 6,7 C 7,8 C 6,7 C 6,7 C 7,8 C 94 % 200 cb 1027,4 hPa 0,0 mm 0,0 km/h (0 Bft) N 0 0 min 0,000 mm 0,0 UV-I 0 W/m 5,8 C 6,7 C 0,0 km/h (0 Bft)
21/08/2019 04:29 7,3 C 8,3 C 7,3 C 7,3 C 8,3 C 93 % 200 cb 1027,4 hPa 0,0 mm 0,0 km/h (0 Bft) N 0 0 min 0,000 mm 0,0 UV-I 0 W/m 6,2 C 7,3 C 0,0 km/h (0 Bft)
21/08/2019 03:29 8,1 C 8,9 C 8,1 C 8,1 C 8,9 C 92 % 200 cb 1027,4 hPa 0,0 mm 0,0 km/h (0 Bft) N 0 0 min 0,000 mm 0,0 UV-I 0 W/m 6,9 C 8,1 C 0,0 km/h (0 Bft)
21/08/2019 02:29 8,8 C 9,4 C 8,8 C 8,8 C 10,0 C 91 % 200 cb 1027,4 hPa 0,0 mm 0,0 km/h (0 Bft) O-NO 292 0 min 0,000 mm 0,0 UV-I 0 W/m 7,4 C 8,8 C 1,6 km/h (1 Bft)
21/08/2019 01:29 10,2 C 10,6 C 10,2 C 10,2 C 11,1 C 89 % 199 cb 1027,3 hPa 0,0 mm 1,6 km/h (1 Bft) O-NO 292 0 min 0,000 mm 0,0 UV-I 0 W/m 8,5 C 10,2 C 1,6 km/h (1 Bft)
21/08/2019 00:29 11,9 C 11,7 C 11,9 C 11,9 C 12,2 C 85 % 197 cb 1027,1 hPa 0,0 mm 0,0 km/h (0 Bft) N 0 0 min 0,025 mm 0,0 UV-I 0 W/m 9,5 C 11,9 C 0,0 km/h (0 Bft)
20/08/2019 23:29 13,1 C 13,3 C 13,1 C 13,1 C 12,8 C 82 % 193 cb 1026,8 hPa 0,0 mm 1,6 km/h (1 Bft) O-NO 292 0 min 0,025 mm 0,0 UV-I 0 W/m 10,1 C 13,1 C 3,2 km/h (1 Bft)
20/08/2019 22:29 13,7 C 14,4 C 13,7 C 13,7 C 13,9 C 82 % 192 cb 1026,3 hPa 0,0 mm 1,6 km/h (1 Bft) O 270 0 min 0,000 mm 0,0 UV-I 0 W/m 10,7 C 13,7 C 3,2 km/h (1 Bft)
20/08/2019 21:29 14,8 C 14,4 C 14,8 C 14,8 C 13,9 C 74 % 185 cb 1025,9 hPa 0,0 mm 1,6 km/h (1 Bft) O 270 0 min 0,025 mm 0,0 UV-I 0 W/m 10,2 C 14,8 C 3,2 km/h (1 Bft)
20/08/2019 20:29 17,8 C 17,2 C 17,8 C 17,8 C 16,1 C 62 % 186 cb 1025,2 hPa 0,0 mm 0,0 km/h (0 Bft) NO 315 0 min 0,076 mm 0,0 UV-I 18 W/m 10,4 C 17,8 C 1,6 km/h (1 Bft)
20/08/2019 19:29 20,2 C 20,6 C 20,2 C 20,2 C 17,2 C 55 % 183 cb 1024,6 hPa 0,0 mm 1,6 km/h (1 Bft) O-NO 292 39 min 0,229 mm 0,0 UV-I 88 W/m 10,9 C 20,2 C 6,4 km/h (2 Bft)
20/08/2019 18:29 20,8 C 25,0 C 20,8 C 20,8 C 18,3 C 51 % 180 cb 1024,0 hPa 0,0 mm 6,4 km/h (2 Bft) SO 225 29 min 0,229 mm 0,9 UV-I 269 W/m 10,3 C 20,8 C 11,3 km/h (2 Bft)
20/08/2019 18:00 20,4 C 27,8 C 20,4 C 20,4 C 18,9 C 58 % 180 cb 1023,8 hPa 0,0 mm 1,6 km/h (1 Bft) N-NO 337 0 min 0,229 mm 1,2 UV-I 438 W/m 11,9 C 20,4 C 3,2 km/h (1 Bft)
_ Min-Heure 07:03 05:51 07:03 07:05 05:53 15:32 18:22 18:05 - 19:25 - - - - - - 07:03 07:03 22:10
Minimum _ 5,7 C 7,2 C 5,7 C 5,7 C 7,2 C 41 % 179 cb 1023,7 hPa - 0,0 km/h (0 Bft) - - - - - - 4,8 C 5,7 C 0,0 km/h (0 Bft)
_ Max-Heure 16:22 16:43 16:22 16:22 15:25 09:15 01:30 08:48 18:00 18:09 - - 18:00 14:00 13:15 12:52 10:42 16:26 18:09
Maximum _ 23,3 C 35,0 C 23,3 C 23,3 C 22,2 C 99 % 200 cb 1028,5 hPa 0,0 mm 14,5 km/h
O-SO (3 Bft)
- - 1 min 0,432 mm 4,9 UV-I 766 W/m 14,0 C 23,3 C 20,9 km/h
O (4 Bft)
Moyenne _ 14,8 C 18,1 C 14,8 C 14,8 C 14,6 C 74 % 195 cb 1026,7 hPa #0,0 mm 2,0 km/h (1 Bft) O-NO - #8:39 h #2,895 mm 3,1 UV-I 282 W/m 9,5 C 14,8 C 3,4 km/h (1 Bft)